Time;durP1;ratioP1;P1;durP2;ratioP2;P2;SDS_P1;SDS_P2;PMS_P1;PMS_P2;Temp;Humidity;BMP_temperature;BMP_pressure;BME280_temperature;BME280_humidity;BME280_pressure;Samples;Min_cycle;Max_cycle;Signal;HPM_P1;HPM_P2
2024/01/21 00:00:08;;;;;;;110.07;29.13;;;;;;;;;;4978702;28;20207;-68
2024/01/21 00:02:41;;;;;;;110.15;31.35;;;;;;;;;;4985120;28;20203;-70
2024/01/21 00:05:09;;;;;;;125.60;32.15;;;;;;;;;;4983645;28;20232;-68
2024/01/21 00:07:39;;;;;;;90.97;30.83;;;;;;;;;;4987086;28;20214;-68
2024/01/21 00:10:09;;;;;;;85.57;29.45;;;;;;;;;;4978365;29;20192;-67
2024/01/21 00:12:37;;;;;;;139.45;33.08;;;;;;;;;;4978014;28;20204;-67
2024/01/21 00:15:06;;;;;;;138.65;34.00;;;;;;;;;;4978209;28;20211;-69
2024/01/21 00:17:34;;;;;;;249.77;37.45;;;;;;;;;;4987323;28;20251;-70
2024/01/21 00:20:04;;;;;;;124.10;34.67;;;;;;;;;;4995660;28;20211;-69
2024/01/21 00:22:32;;;;;;;99.75;31.08;;;;;;;;;;4986478;28;20199;-69
2024/01/21 00:25:00;;;;;;;106.97;34.97;;;;;;;;;;4993089;28;20211;-68
2024/01/21 00:27:28;;;;;;;92.68;30.40;;;;;;;;;;4986442;28;20207;-66
2024/01/21 00:29:57;;;;;;;95.20;30.92;;;;;;;;;;4990332;28;20210;-67
2024/01/21 00:32:25;;;;;;;106.70;31.02;;;;;;;;;;4997190;28;20207;-68
2024/01/21 00:34:53;;;;;;;160.85;32.22;;;;;;;;;;4996811;28;20237;-68
2024/01/21 00:37:23;;;;;;;179.77;33.03;;;;;;;;;;4981700;28;20235;-69
2024/01/21 00:39:51;;;;;;;95.88;30.98;;;;;;;;;;4996878;28;20215;-69
2024/01/21 00:42:19;;;;;;;78.45;28.52;;;;;;;;;;4988394;28;20240;-70
2024/01/21 00:44:47;;;;;;;93.65;31.70;;;;;;;;;;4977942;29;20235;-66
2024/01/21 00:47:16;;;;;;;107.13;30.58;;;;;;;;;;4996418;28;20226;-66
2024/01/21 00:49:44;;;;;;;97.03;31.95;;;;;;;;;;4993365;28;20227;-68
2024/01/21 00:52:12;;;;;;;111.25;32.25;;;;;;;;;;4977729;29;20228;-68
2024/01/21 00:54:41;;;;;;;133.07;36.65;;;;;;;;;;4977443;29;20219;-69
2024/01/21 00:57:10;;;;;;;153.55;42.90;;;;;;;;;;4994622;28;20258;-68
2024/01/21 00:59:38;;;;;;;132.05;34.65;;;;;;;;;;4996006;28;20713;-67
2024/01/21 01:02:06;;;;;;;140.23;39.40;;;;;;;;;;4995835;28;20215;-69
2024/01/21 01:04:34;;;;;;;160.20;32.88;;;;;;;;;;4995161;28;20266;-69
2024/01/21 01:07:02;;;;;;;142.93;33.95;;;;;;;;;;4979428;28;20264;-67
2024/01/21 01:09:30;;;;;;;118.30;31.33;;;;;;;;;;4988339;28;20230;-67
2024/01/21 01:12:00;;;;;;;135.52;32.55;;;;;;;;;;4977604;28;20204;-69
2024/01/21 01:14:28;;;;;;;112.90;32.95;;;;;;;;;;4977095;28;20188;-66
2024/01/21 01:16:56;;;;;;;131.02;30.02;;;;;;;;;;4993301;28;20234;-68
2024/01/21 01:19:25;;;;;;;120.47;34.75;;;;;;;;;;4995683;28;20247;-68
2024/01/21 01:21:53;;;;;;;116.63;33.60;;;;;;;;;;4995787;28;20214;-68
2024/01/21 01:24:21;;;;;;;184.02;34.17;;;;;;;;;;4989787;28;20195;-67
2024/01/21 01:26:50;;;;;;;94.50;31.70;;;;;;;;;;4977136;28;20222;-68
2024/01/21 01:29:19;;;;;;;92.93;29.55;;;;;;;;;;4996323;28;20273;-67
2024/01/21 01:31:47;;;;;;;101.05;31.77;;;;;;;;;;4996620;28;20218;-67
2024/01/21 01:34:15;;;;;;;117.20;30.75;;;;;;;;;;4996154;28;20231;-66
2024/01/21 01:36:44;;;;;;;115.13;32.55;;;;;;;;;;4982431;28;20224;-68
2024/01/21 01:39:12;;;;;;;107.60;33.05;;;;;;;;;;4985799;28;20235;-69
2024/01/21 01:41:40;;;;;;;160.10;33.25;;;;;;;;;;4979184;28;20235;-67
2024/01/21 01:44:08;;;;;;;158.40;34.85;;;;;;;;;;4981090;28;20242;-70
2024/01/21 01:46:38;;;;;;;176.52;34.92;;;;;;;;;;4982966;28;20223;-68
2024/01/21 01:49:06;;;;;;;138.52;33.22;;;;;;;;;;4982606;28;20423;-68
2024/01/21 01:51:35;;;;;;;128.88;31.77;;;;;;;;;;4995062;28;20218;-68
2024/01/21 01:54:03;;;;;;;166.50;32.58;;;;;;;;;;4982111;28;20224;-67
2024/01/21 01:56:32;;;;;;;130.93;32.90;;;;;;;;;;4988041;28;20239;-68
2024/01/21 01:59:01;;;;;;;147.77;34.20;;;;;;;;;;4996154;28;20251;-69
2024/01/21 02:01:29;;;;;;;151.25;36.15;;;;;;;;;;4975769;28;20296;-69
2024/01/21 02:03:59;;;;;;;146.43;32.45;;;;;;;;;;4954784;28;20200;-69
2024/01/21 02:06:27;;;;;;;125.00;32.13;;;;;;;;;;4954266;28;20238;-69
2024/01/21 02:08:55;;;;;;;160.75;34.75;;;;;;;;;;4952410;29;20578;-69
2024/01/21 02:11:23;;;;;;;142.75;35.42;;;;;;;;;;4952742;29;20666;-69
2024/01/21 02:13:52;;;;;;;150.57;36.40;;;;;;;;;;4960465;28;20206;-69
2024/01/21 02:16:20;;;;;;;129.88;32.22;;;;;;;;;;4975127;28;20210;-69
2024/01/21 02:18:49;;;;;;;173.40;33.45;;;;;;;;;;4991295;28;20224;-69
2024/01/21 02:21:18;;;;;;;107.70;33.55;;;;;;;;;;4967222;28;20579;-69
2024/01/21 02:23:48;;;;;;;163.20;36.47;;;;;;;;;;4956320;29;20208;-69
2024/01/21 02:26:17;;;;;;;112.40;30.48;;;;;;;;;;4962022;28;20200;-69
2024/01/21 02:28:45;;;;;;;128.40;28.80;;;;;;;;;;4966579;28;20240;-69
2024/01/21 02:31:13;;;;;;;157.57;34.97;;;;;;;;;;4956478;29;20569;-69
2024/01/21 02:33:42;;;;;;;148.95;30.10;;;;;;;;;;4973078;28;20226;-69
2024/01/21 02:36:10;;;;;;;124.55;32.40;;;;;;;;;;4966808;28;20204;-69
2024/01/21 02:38:38;;;;;;;142.80;29.90;;;;;;;;;;4972620;28;20219;-69
2024/01/21 02:41:07;;;;;;;123.22;32.40;;;;;;;;;;4967376;28;20196;-69
2024/01/21 02:43:36;;;;;;;127.60;32.80;;;;;;;;;;4963611;28;20659;-69
2024/01/21 02:46:04;;;;;;;121.57;32.30;;;;;;;;;;4963663;28;20200;-69
2024/01/21 02:48:32;;;;;;;122.65;30.38;;;;;;;;;;4975310;28;20662;-69
2024/01/21 02:51:00;;;;;;;129.13;33.45;;;;;;;;;;4975030;28;20207;-69
2024/01/21 02:53:28;;;;;;;113.80;32.55;;;;;;;;;;4975023;28;20211;-69
2024/01/21 02:56:06;;;;;;;149.82;31.30;;;;;;;;;;4966425;28;20266;-69
2024/01/21 02:58:35;;;;;;;115.03;31.08;;;;;;;;;;4966741;28;20195;-69
2024/01/21 03:01:03;;;;;;;120.90;32.85;;;;;;;;;;4963009;28;20574;-69
2024/01/21 03:03:32;;;;;;;123.47;30.45;;;;;;;;;;4969570;28;20273;-69
2024/01/21 03:06:00;;;;;;;115.72;32.95;;;;;;;;;;4981875;28;20220;-69
2024/01/21 03:08:28;;;;;;;107.30;29.95;;;;;;;;;;4954836;29;20686;-69
2024/01/21 03:10:56;;;;;;;132.52;33.55;;;;;;;;;;4955680;29;20556;-69
2024/01/21 03:13:24;;;;;;;117.43;30.30;;;;;;;;;;4955328;28;20573;-69
2024/01/21 03:15:54;;;;;;;98.32;30.92;;;;;;;;;;4957606;28;20208;-69
2024/01/21 03:18:22;;;;;;;108.55;30.85;;;;;;;;;;4970439;28;20604;-69
2024/01/21 03:20:51;;;;;;;128.88;28.85;;;;;;;;;;4964168;28;20224;-69
2024/01/21 03:23:19;;;;;;;151.45;31.38;;;;;;;;;;4955285;28;20563;-69
2024/01/21 03:25:47;;;;;;;86.60;28.00;;;;;;;;;;4962451;28;20199;-68
2024/01/21 03:28:17;;;;;;;120.45;27.92;;;;;;;;;;4961264;28;20560;-69
2024/01/21 03:30:45;;;;;;;84.40;27.42;;;;;;;;;;4964696;28;20266;-69
2024/01/21 03:33:14;;;;;;;192.27;33.95;;;;;;;;;;4965723;28;20215;-69
2024/01/21 03:35:43;;;;;;;145.07;27.73;;;;;;;;;;4958121;28;20206;-69
2024/01/21 03:38:11;;;;;;;113.50;30.33;;;;;;;;;;4954580;28;20239;-69
2024/01/21 03:40:39;;;;;;;89.82;29.40;;;;;;;;;;4961338;28;20227;-69
2024/01/21 03:43:07;;;;;;;117.95;30.15;;;;;;;;;;4985805;28;20269;-69
2024/01/21 03:45:35;;;;;;;105.00;27.42;;;;;;;;;;4970622;28;20202;-69
2024/01/21 03:48:04;;;;;;;216.98;50.55;;;;;;;;;;4957526;28;20204;-69
2024/01/21 03:50:33;;;;;;;148.48;36.65;;;;;;;;;;4957170;28;20204;-69
2024/01/21 03:53:02;;;;;;;116.60;31.77;;;;;;;;;;4954318;28;20537;-69
2024/01/21 03:55:30;;;;;;;129.57;30.35;;;;;;;;;;4956060;28;20200;-69
2024/01/21 03:57:58;;;;;;;120.97;33.03;;;;;;;;;;4972466;28;21017;-69
2024/01/21 04:00:27;;;;;;;127.78;32.40;;;;;;;;;;4971540;28;20587;-69
2024/01/21 04:02:55;;;;;;;134.75;33.33;;;;;;;;;;4974227;28;20206;-70
2024/01/21 04:05:23;;;;;;;155.30;39.90;;;;;;;;;;4971579;28;20229;-69
2024/01/21 04:07:52;;;;;;;117.93;31.73;;;;;;;;;;4964841;28;20242;-69
2024/01/21 04:10:21;;;;;;;120.35;31.02;;;;;;;;;;4954578;28;20568;-69
2024/01/21 04:12:49;;;;;;;125.72;31.35;;;;;;;;;;4954194;29;20208;-69
2024/01/21 04:15:18;;;;;;;138.02;34.30;;;;;;;;;;4954870;28;20666;-69
2024/01/21 04:17:46;;;;;;;132.70;31.95;;;;;;;;;;4959672;28;20206;-69
2024/01/21 04:20:14;;;;;;;212.05;55.72;;;;;;;;;;4973470;28;20751;-69
2024/01/21 04:22:42;;;;;;;249.32;74.85;;;;;;;;;;4972912;28;20206;-69
2024/01/21 04:25:12;;;;;;;141.52;43.88;;;;;;;;;;4973285;28;20207;-69
2024/01/21 04:27:40;;;;;;;226.52;73.25;;;;;;;;;;4969317;28;20199;-69
2024/01/21 04:30:09;;;;;;;145.50;36.38;;;;;;;;;;4964111;28;20207;-69
2024/01/21 04:32:37;;;;;;;174.18;36.40;;;;;;;;;;4964664;28;20231;-69
2024/01/21 04:35:06;;;;;;;148.57;31.00;;;;;;;;;;4963258;28;20219;-69
2024/01/21 04:37:34;;;;;;;128.82;36.83;;;;;;;;;;4959059;28;20204;-69
2024/01/21 04:40:03;;;;;;;129.88;31.08;;;;;;;;;;4972255;28;20241;-69
2024/01/21 04:42:33;;;;;;;187.40;37.80;;;;;;;;;;4973534;28;20203;-69
2024/01/21 04:45:02;;;;;;;117.32;34.00;;;;;;;;;;4960763;28;20208;-69
2024/01/21 04:47:30;;;;;;;126.55;32.38;;;;;;;;;;4986022;28;20203;-69
2024/01/21 04:49:58;;;;;;;126.03;32.42;;;;;;;;;;4972921;28;20206;-69
2024/01/21 04:52:27;;;;;;;102.18;32.47;;;;;;;;;;4960353;28;20210;-69
2024/01/21 04:54:56;;;;;;;110.30;31.85;;;;;;;;;;4954162;28;20214;-69
2024/01/21 04:57:24;;;;;;;126.43;32.80;;;;;;;;;;4969839;28;20293;-69
2024/01/21 04:59:54;;;;;;;127.13;33.15;;;;;;;;;;4973114;28;20224;-69
2024/01/21 05:02:22;;;;;;;122.20;30.80;;;;;;;;;;4972067;28;20591;-69
2024/01/21 05:04:50;;;;;;;122.97;36.03;;;;;;;;;;4971932;28;20245;-69
2024/01/21 05:07:18;;;;;;;102.20;29.77;;;;;;;;;;4957370;28;20235;-69
2024/01/21 05:09:47;;;;;;;122.47;32.35;;;;;;;;;;4954323;29;20218;-69
2024/01/21 05:12:15;;;;;;;93.28;29.48;;;;;;;;;;4954376;29;20222;-69
2024/01/21 05:14:43;;;;;;;177.57;36.22;;;;;;;;;;4970080;28;20265;-69
2024/01/21 05:17:13;;;;;;;133.80;33.47;;;;;;;;;;4958432;28;20208;-69
2024/01/21 05:19:41;;;;;;;141.65;30.52;;;;;;;;;;4953877;29;20577;-69
2024/01/21 05:22:09;;;;;;;177.65;34.72;;;;;;;;;;4953579;29;20211;-69
2024/01/21 05:24:37;;;;;;;139.55;40.80;;;;;;;;;;4953640;29;20212;-69
2024/01/21 05:27:06;;;;;;;137.18;37.80;;;;;;;;;;4966640;28;20217;-69
2024/01/21 05:29:34;;;;;;;142.40;41.90;;;;;;;;;;4972699;28;20673;-69
2024/01/21 05:32:02;;;;;;;155.05;42.00;;;;;;;;;;4972652;28;20211;-69
2024/01/21 05:34:31;;;;;;;144.35;36.33;;;;;;;;;;4972223;28;20207;-69
2024/01/21 05:37:00;;;;;;;112.90;32.08;;;;;;;;;;4965746;28;20607;-69
2024/01/21 05:39:28;;;;;;;124.45;36.83;;;;;;;;;;4972800;28;20688;-69
2024/01/21 05:42:02;;;;;;;130.60;33.28;;;;;;;;;;4971817;28;20223;-69
2024/01/21 05:44:31;;;;;;;143.65;37.55;;;;;;;;;;4973095;28;20210;-69
2024/01/21 05:46:59;;;;;;;117.72;34.35;;;;;;;;;;4960138;28;20204;-68
2024/01/21 05:49:27;;;;;;;115.20;35.38;;;;;;;;;;4954535;28;20222;-67
2024/01/21 05:51:57;;;;;;;131.27;37.78;;;;;;;;;;4959635;28;20205;-68
2024/01/21 05:54:26;;;;;;;133.88;36.55;;;;;;;;;;4975735;28;20203;-68
2024/01/21 05:56:53;;;;;;;105.80;32.10;;;;;;;;;;4967047;28;20231;-68
2024/01/21 05:59:21;;;;;;;136.93;35.15;;;;;;;;;;4976769;28;20203;-68
2024/01/21 06:01:50;;;;;;;118.95;33.38;;;;;;;;;;4974609;28;20233;-68
2024/01/21 06:04:18;;;;;;;111.20;32.88;;;;;;;;;;4974976;28;20215;-67
2024/01/21 06:06:46;;;;;;;107.32;33.15;;;;;;;;;;4965043;28;20232;-68
2024/01/21 06:09:16;;;;;;;111.90;33.22;;;;;;;;;;4957220;28;20212;-68
2024/01/21 06:11:44;;;;;;;118.10;35.97;;;;;;;;;;4956667;29;20685;-68
2024/01/21 06:14:13;;;;;;;112.00;36.33;;;;;;;;;;4956842;28;20219;-68
2024/01/21 06:16:41;;;;;;;108.07;34.10;;;;;;;;;;4964090;28;20562;-68
2024/01/21 06:19:09;;;;;;;111.38;34.83;;;;;;;;;;4963920;28;20217;-68
2024/01/21 06:21:43;;;;;;;134.10;35.67;;;;;;;;;;4975439;28;20219;-68
2024/01/21 06:24:11;;;;;;;122.75;34.40;;;;;;;;;;4963412;28;20226;-68
2024/01/21 06:26:41;;;;;;;123.85;34.38;;;;;;;;;;4964992;28;20208;-68
2024/01/21 06:29:09;;;;;;;121.28;36.70;;;;;;;;;;4960913;28;20206;-68
2024/01/21 06:31:37;;;;;;;129.45;37.08;;;;;;;;;;4956162;28;20192;-68
2024/01/21 06:34:06;;;;;;;122.93;35.33;;;;;;;;;;4966259;28;20207;-68
2024/01/21 06:36:34;;;;;;;140.35;36.47;;;;;;;;;;4971437;28;20218;-68
2024/01/21 06:39:03;;;;;;;121.80;34.45;;;;;;;;;;4975701;28;20213;-68
2024/01/21 06:41:31;;;;;;;109.18;33.97;;;;;;;;;;4975595;28;20249;-68
2024/01/21 06:44:01;;;;;;;125.28;36.03;;;;;;;;;;4974545;28;20207;-68
2024/01/21 06:46:29;;;;;;;115.60;32.90;;;;;;;;;;4975037;28;20203;-68
2024/01/21 06:48:57;;;;;;;127.20;35.85;;;;;;;;;;4963394;28;20205;-68
2024/01/21 06:51:34;;;;;;;124.30;36.50;;;;;;;;;;4956186;29;20211;-68
2024/01/21 06:54:03;;;;;;;114.25;34.05;;;;;;;;;;4955641;29;20200;-68
2024/01/21 06:56:31;;;;;;;124.07;35.97;;;;;;;;;;4963160;28;20239;-68
2024/01/21 06:59:00;;;;;;;117.20;35.20;;;;;;;;;;4971220;28;20738;-68
2024/01/21 07:01:29;;;;;;;130.38;37.58;;;;;;;;;;4964240;28;20224;-68
2024/01/21 07:03:57;;;;;;;107.15;37.05;;;;;;;;;;4973608;28;20200;-68
2024/01/21 07:06:25;;;;;;;106.88;32.95;;;;;;;;;;4968279;28;20819;-68
2024/01/21 07:08:53;;;;;;;107.78;36.78;;;;;;;;;;4971246;28;20207;-68
2024/01/21 07:11:21;;;;;;;116.82;35.35;;;;;;;;;;4973893;28;20676;-68
2024/01/21 07:13:49;;;;;;;116.57;37.40;;;;;;;;;;4971119;28;20199;-68
2024/01/21 07:16:19;;;;;;;128.43;40.55;;;;;;;;;;4974102;28;20203;-68
2024/01/21 07:18:47;;;;;;;111.50;35.78;;;;;;;;;;4969583;28;20199;-68
2024/01/21 07:21:15;;;;;;;117.20;34.55;;;;;;;;;;4974230;28;20234;-68
2024/01/21 07:23:45;;;;;;;118.78;36.45;;;;;;;;;;4974173;28;20207;-68
2024/01/21 07:26:13;;;;;;;112.57;36.78;;;;;;;;;;4974561;28;20214;-68
2024/01/21 07:28:41;;;;;;;126.22;37.67;;;;;;;;;;4970957;28;20195;-68
2024/01/21 07:31:09;;;;;;;116.65;33.83;;;;;;;;;;4973491;28;20564;-68
2024/01/21 07:33:39;;;;;;;115.25;35.53;;;;;;;;;;4973800;28;20195;-68
2024/01/21 07:36:07;;;;;;;94.75;32.75;;;;;;;;;;4971737;28;20210;-68
2024/01/21 07:38:36;;;;;;;102.55;33.17;;;;;;;;;;4973897;28;20199;-68
2024/01/21 07:41:04;;;;;;;119.47;35.08;;;;;;;;;;4973252;28;20227;-68
2024/01/21 07:43:32;;;;;;;96.78;33.95;;;;;;;;;;4966806;28;20196;-68
2024/01/21 07:46:00;;;;;;;92.82;32.53;;;;;;;;;;4969464;28;20216;-68
2024/01/21 07:48:29;;;;;;;86.30;32.15;;;;;;;;;;4966984;28;20199;-68
2024/01/21 07:50:58;;;;;;;83.55;29.88;;;;;;;;;;4970130;28;20202;-68
2024/01/21 07:53:27;;;;;;;106.65;33.38;;;;;;;;;;4967687;28;20198;-68
2024/01/21 07:55:56;;;;;;;77.90;34.20;;;;;;;;;;4970281;28;20234;-68
2024/01/21 07:58:24;;;;;;;87.60;30.70;;;;;;;;;;4966927;28;20600;-68
2024/01/21 08:00:53;;;;;;;84.88;32.63;;;;;;;;;;4969380;28;20287;-68
2024/01/21 08:03:21;;;;;;;88.95;31.25;;;;;;;;;;4968925;28;20203;-68
2024/01/21 08:05:49;;;;;;;86.95;32.28;;;;;;;;;;4968365;28;20596;-68
2024/01/21 08:08:19;;;;;;;73.32;27.30;;;;;;;;;;4972974;28;20278;-68
2024/01/21 08:10:47;;;;;;;83.93;32.75;;;;;;;;;;4969176;28;20204;-69
2024/01/21 08:13:15;;;;;;;78.78;30.17;;;;;;;;;;4969637;28;20200;-68
2024/01/21 08:15:43;;;;;;;67.70;30.50;;;;;;;;;;4972763;28;20642;-68
2024/01/21 08:18:12;;;;;;;83.93;33.10;;;;;;;;;;4970102;28;20199;-68
2024/01/21 08:20:41;;;;;;;78.53;32.03;;;;;;;;;;4968274;28;20206;-68
2024/01/21 08:23:09;;;;;;;80.55;29.95;;;;;;;;;;4970562;28;20315;-68
2024/01/21 08:25:38;;;;;;;69.45;29.00;;;;;;;;;;4969891;28;20203;-68
2024/01/21 08:28:07;;;;;;;79.68;31.42;;;;;;;;;;4956526;28;20214;-68
2024/01/21 08:30:35;;;;;;;82.88;30.13;;;;;;;;;;4956375;29;20247;-68
2024/01/21 08:33:03;;;;;;;70.88;28.50;;;;;;;;;;4960302;28;20206;-68
2024/01/21 08:35:31;;;;;;;81.00;29.88;;;;;;;;;;4995707;28;20529;-66
2024/01/21 08:38:00;;;;;;;76.00;31.08;;;;;;;;;;5001745;28;20215;-69
2024/01/21 08:40:28;;;;;;;91.82;33.63;;;;;;;;;;4996099;28;20237;-66
2024/01/21 08:42:59;;;;;;;71.32;31.13;;;;;;;;;;4991007;28;20203;-66
2024/01/21 08:45:27;;;;;;;90.40;33.03;;;;;;;;;;4993058;28;20234;-67
2024/01/21 08:47:55;;;;;;;84.40;35.30;;;;;;;;;;4987848;28;20234;-69
2024/01/21 08:50:23;;;;;;;76.40;31.95;;;;;;;;;;4985003;28;20218;-67
2024/01/21 08:52:52;;;;;;;76.13;32.78;;;;;;;;;;4997157;28;20238;-69
2024/01/21 08:55:20;;;;;;;69.80;30.85;;;;;;;;;;4996030;28;20211;-70
2024/01/21 08:57:50;;;;;;;76.57;34.15;;;;;;;;;;4995261;28;20251;-69
2024/01/21 09:00:20;;;;;;;66.97;30.40;;;;;;;;;;4992794;28;20195;-69
2024/01/21 09:02:48;;;;;;;67.13;28.02;;;;;;;;;;4995233;28;20266;-70
2024/01/21 09:05:17;;;;;;;67.65;28.85;;;;;;;;;;4995168;28;20230;-68
2024/01/21 09:07:45;;;;;;;63.80;26.95;;;;;;;;;;4994403;28;20219;-68
2024/01/21 09:10:14;;;;;;;66.60;30.38;;;;;;;;;;4995535;28;20254;-67
2024/01/21 09:12:42;;;;;;;70.32;30.98;;;;;;;;;;4996020;28;20227;-68
2024/01/21 09:15:10;;;;;;;69.00;29.65;;;;;;;;;;4995976;28;20206;-69
2024/01/21 09:17:41;;;;;;;110.88;45.45;;;;;;;;;;4994117;28;20246;-69
2024/01/21 09:20:10;;;;;;;65.10;28.88;;;;;;;;;;4988599;28;20216;-69
2024/01/21 09:22:38;;;;;;;71.55;29.70;;;;;;;;;;4995802;28;20242;-69
2024/01/21 09:25:06;;;;;;;67.90;29.52;;;;;;;;;;4998737;28;20238;-68
2024/01/21 09:27:35;;;;;;;65.60;29.30;;;;;;;;;;4993622;28;20435;-67
2024/01/21 09:30:03;;;;;;;61.17;29.08;;;;;;;;;;4989332;28;20210;-67
2024/01/21 09:32:31;;;;;;;56.05;28.58;;;;;;;;;;4993120;28;20238;-66
2024/01/21 09:35:01;;;;;;;61.83;28.30;;;;;;;;;;4989830;28;20234;-66
2024/01/21 09:37:29;;;;;;;62.75;29.45;;;;;;;;;;4972663;28;20303;-64
2024/01/21 09:39:58;;;;;;;70.22;29.60;;;;;;;;;;4995090;28;20246;-64
2024/01/21 09:42:26;;;;;;;52.70;26.50;;;;;;;;;;4986869;28;20661;-64
2024/01/21 09:44:54;;;;;;;49.63;23.75;;;;;;;;;;4978131;28;20235;-65
2024/01/21 09:47:23;;;;;;;62.10;27.30;;;;;;;;;;4979269;28;20267;-64
2024/01/21 09:49:52;;;;;;;56.63;27.15;;;;;;;;;;4982542;28;20213;-67
2024/01/21 09:52:24;;;;;;;62.38;29.15;;;;;;;;;;4988791;28;20224;-68
2024/01/21 09:54:52;;;;;;;62.55;27.63;;;;;;;;;;4976231;29;20223;-66
2024/01/21 09:57:20;;;;;;;59.20;27.38;;;;;;;;;;4986437;28;20263;-65
2024/01/21 09:59:49;;;;;;;60.40;28.75;;;;;;;;;;4995884;28;20230;-70
2024/01/21 10:02:17;;;;;;;54.45;27.15;;;;;;;;;;4993108;28;20257;-66
2024/01/21 10:04:46;;;;;;;49.28;24.83;;;;;;;;;;4986844;28;20289;-67
2024/01/21 10:07:14;;;;;;;57.63;24.42;;;;;;;;;;4979056;28;20284;-65
2024/01/21 10:09:44;;;;;;;48.80;24.77;;;;;;;;;;4986673;28;20263;-65
2024/01/21 10:12:12;;;;;;;68.63;36.17;;;;;;;;;;4988589;28;20282;-64
2024/01/21 10:14:40;;;;;;;74.30;39.25;;;;;;;;;;4981939;28;20264;-65
2024/01/21 10:17:08;;;;;;;55.35;26.13;;;;;;;;;;4980334;28;20263;-65
2024/01/21 10:19:37;;;;;;;47.90;26.88;;;;;;;;;;4979720;28;20288;-64
2024/01/21 10:22:09;;;;;;;48.10;24.55;;;;;;;;;;4968008;28;20275;-64
2024/01/21 10:24:40;;;;;;;45.80;26.08;;;;;;;;;;4973978;28;20278;-64
2024/01/21 10:27:10;;;;;;;53.83;26.55;;;;;;;;;;4981164;28;20263;-64
2024/01/21 10:29:41;;;;;;;50.97;25.23;;;;;;;;;;4981703;28;20286;-64
2024/01/21 10:32:10;;;;;;;44.47;24.83;;;;;;;;;;4965342;28;20275;-63
2024/01/21 10:34:39;;;;;;;46.45;24.45;;;;;;;;;;4967504;28;20294;-66
2024/01/21 10:37:07;;;;;;;60.13;25.08;;;;;;;;;;4972182;28;20260;-64
2024/01/21 10:39:37;;;;;;;49.35;25.80;;;;;;;;;;4983406;28;20288;-65
2024/01/21 10:42:06;;;;;;;46.03;23.90;;;;;;;;;;4999339;28;20259;-64
2024/01/21 10:44:36;;;;;;;40.75;23.00;;;;;;;;;;4989758;28;20295;-64
2024/01/21 10:47:06;;;;;;;45.25;23.17;;;;;;;;;;4980574;28;20344;-64
2024/01/21 10:49:35;;;;;;;36.63;22.50;;;;;;;;;;4984707;28;20289;-65
2024/01/21 10:52:03;;;;;;;45.05;24.13;;;;;;;;;;4980947;28;20697;-66
2024/01/21 10:54:32;;;;;;;44.90;22.25;;;;;;;;;;4963482;28;20276;-65
2024/01/21 10:57:01;;;;;;;50.10;25.45;;;;;;;;;;4979028;28;20287;-66
2024/01/21 10:59:31;;;;;;;53.08;28.33;;;;;;;;;;4977881;28;20287;-65
2024/01/21 11:02:02;;;;;;;42.08;23.00;;;;;;;;;;4972886;28;20279;-65
2024/01/21 11:04:30;;;;;;;41.17;22.27;;;;;;;;;;4981365;28;20282;-65
2024/01/21 11:07:02;;;;;;;37.38;22.20;;;;;;;;;;4977236;28;20275;-67
2024/01/21 11:09:32;;;;;;;37.45;24.30;;;;;;;;;;4982490;28;20278;-67
2024/01/21 11:12:03;;;;;;;36.63;23.05;;;;;;;;;;4967945;28;20324;-66
2024/01/21 11:14:33;;;;;;;29.55;19.15;;;;;;;;;;4981755;28;20230;-64
2024/01/21 11:17:03;;;;;;;29.58;19.00;;;;;;;;;;4973740;28;20622;-65
2024/01/21 11:19:32;;;;;;;24.15;16.42;;;;;;;;;;4965203;28;20330;-66
2024/01/21 11:22:00;;;;;;;19.63;14.00;;;;;;;;;;4964174;29;20287;-65
2024/01/21 11:24:30;;;;;;;23.92;17.10;;;;;;;;;;4965364;28;20272;-63
2024/01/21 11:26:59;;;;;;;25.50;16.88;;;;;;;;;;4968985;28;20310;-66
2024/01/21 11:29:28;;;;;;;27.92;17.85;;;;;;;;;;4974931;28;20255;-65
2024/01/21 11:31:58;;;;;;;23.02;16.85;;;;;;;;;;4965298;28;20609;-65
2024/01/21 11:34:31;;;;;;;24.33;18.55;;;;;;;;;;4978354;28;20270;-65
2024/01/21 11:36:59;;;;;;;28.17;20.23;;;;;;;;;;4974641;28;20247;-66
2024/01/21 11:39:28;;;;;;;28.40;21.38;;;;;;;;;;4962461;29;20282;-65
2024/01/21 11:41:56;;;;;;;30.98;22.05;;;;;;;;;;4973308;28;20282;-65
2024/01/21 11:44:25;;;;;;;29.35;22.02;;;;;;;;;;4974098;28;20274;-65
2024/01/21 11:46:54;;;;;;;26.45;22.02;;;;;;;;;;4984526;28;20283;-66
2024/01/21 11:49:23;;;;;;;30.75;22.20;;;;;;;;;;4972419;28;20259;-66
2024/01/21 11:51:53;;;;;;;23.48;19.50;;;;;;;;;;4975159;28;20301;-66
2024/01/21 11:54:21;;;;;;;25.98;20.10;;;;;;;;;;4983407;28;20282;-66
2024/01/21 11:56:49;;;;;;;26.90;22.13;;;;;;;;;;4984844;28;20306;-66
2024/01/21 11:59:18;;;;;;;30.45;23.85;;;;;;;;;;4980104;28;20278;-65
2024/01/21 12:01:47;;;;;;;32.92;24.20;;;;;;;;;;4980856;28;20282;-67
2024/01/21 12:04:16;;;;;;;26.77;22.17;;;;;;;;;;4978613;28;20306;-66
2024/01/21 12:06:46;;;;;;;24.35;19.88;;;;;;;;;;4987602;28;20737;-66
2024/01/21 12:09:16;;;;;;;27.58;22.35;;;;;;;;;;4977328;28;20260;-66
2024/01/21 12:11:45;;;;;;;27.40;21.38;;;;;;;;;;4964513;29;20271;-65
2024/01/21 12:14:14;;;;;;;27.45;21.48;;;;;;;;;;4963018;28;20282;-66
2024/01/21 12:16:42;;;;;;;24.05;21.45;;;;;;;;;;4974670;28;20255;-66
2024/01/21 12:19:12;;;;;;;23.92;20.85;;;;;;;;;;4970322;28;20342;-65
2024/01/21 12:21:40;;;;;;;25.63;21.17;;;;;;;;;;4975020;28;20278;-66
2024/01/21 12:24:08;;;;;;;26.05;22.65;;;;;;;;;;4979150;28;20303;-66
2024/01/21 12:26:38;;;;;;;27.83;24.75;;;;;;;;;;4976743;28;20280;-66
2024/01/21 12:29:06;;;;;;;25.20;22.50;;;;;;;;;;4961516;28;20287;-65
2024/01/21 12:31:36;;;;;;;26.50;23.15;;;;;;;;;;4969551;28;20279;-65
2024/01/21 12:34:05;;;;;;;26.33;23.63;;;;;;;;;;4971390;28;20676;-65
2024/01/21 12:36:33;;;;;;;25.83;23.27;;;;;;;;;;4972282;28;20330;-65
2024/01/21 12:39:02;;;;;;;25.75;23.05;;;;;;;;;;4993604;28;20263;-67
2024/01/21 12:41:31;;;;;;;30.15;24.65;;;;;;;;;;4978331;28;20282;-66
2024/01/21 12:44:00;;;;;;;24.88;22.25;;;;;;;;;;4983583;28;20294;-65
2024/01/21 12:46:29;;;;;;;30.02;25.60;;;;;;;;;;4976178;28;20276;-68
2024/01/21 12:48:57;;;;;;;30.90;26.05;;;;;;;;;;4972812;28;20274;-64
2024/01/21 12:51:28;;;;;;;23.27;20.77;;;;;;;;;;4978548;28;20267;-66
2024/01/21 12:53:56;;;;;;;25.23;22.50;;;;;;;;;;4978553;28;20254;-67
2024/01/21 12:56:25;;;;;;;23.48;20.95;;;;;;;;;;4977172;28;20789;-65
2024/01/21 12:58:53;;;;;;;26.77;22.65;;;;;;;;;;4960181;28;20276;-66
2024/01/21 13:01:23;;;;;;;25.50;22.80;;;;;;;;;;4958897;29;20212;-66
2024/01/21 13:03:52;;;;;;;24.63;20.38;;;;;;;;;;4963911;28;20216;-68
2024/01/21 13:06:20;;;;;;;25.83;20.33;;;;;;;;;;4976932;28;20330;-67
2024/01/21 13:08:49;;;;;;;25.55;20.23;;;;;;;;;;4975454;28;20288;-69
2024/01/21 13:11:17;;;;;;;24.48;20.08;;;;;;;;;;4958664;28;20287;-69
2024/01/21 13:13:45;;;;;;;23.00;18.58;;;;;;;;;;4980382;28;20267;-65
2024/01/21 13:16:14;;;;;;;23.42;19.92;;;;;;;;;;4972672;28;20210;-66
2024/01/21 13:18:43;;;;;;;24.60;19.52;;;;;;;;;;4972026;28;20274;-66
2024/01/21 13:21:12;;;;;;;22.23;18.70;;;;;;;;;;4976607;28;20348;-66
2024/01/21 13:23:40;;;;;;;22.50;20.20;;;;;;;;;;4969098;28;20286;-66
2024/01/21 13:26:08;;;;;;;24.13;19.17;;;;;;;;;;4973974;28;20263;-65
2024/01/21 13:30:42;;;;;;;23.23;19.75;;;;;;;;;;4959371;28;20640;-65
2024/01/21 13:31:26;;;;;;;24.08;20.15;;;;;;;;;;4959644;28;20775;-66
2024/01/21 13:33:58;;;;;;;24.35;18.63;;;;;;;;;;4966547;28;20199;-68
2024/01/21 13:36:26;;;;;;;21.65;18.77;;;;;;;;;;4969214;28;20204;-65
2024/01/21 13:38:54;;;;;;;23.90;20.83;;;;;;;;;;4973282;28;20196;-66
2024/01/21 13:41:23;;;;;;;22.92;19.90;;;;;;;;;;4963196;28;20219;-67
2024/01/21 13:43:51;;;;;;;22.30;19.00;;;;;;;;;;4972373;28;20203;-66
2024/01/21 13:46:19;;;;;;;25.52;22.23;;;;;;;;;;4971588;28;20640;-67
2024/01/21 13:48:47;;;;;;;23.10;20.48;;;;;;;;;;4975789;28;20275;-66
2024/01/21 13:51:17;;;;;;;24.20;20.92;;;;;;;;;;4976370;28;20237;-66
2024/01/21 13:53:46;;;;;;;21.98;19.65;;;;;;;;;;4976392;28;20290;-66
2024/01/21 13:56:14;;;;;;;20.88;18.52;;;;;;;;;;4975686;28;20274;-65
2024/01/21 13:58:42;;;;;;;24.55;19.75;;;;;;;;;;4976810;28;20275;-65
2024/01/21 14:01:11;;;;;;;25.02;19.02;;;;;;;;;;4975907;28;20217;-66
2024/01/21 14:03:39;;;;;;;21.60;17.15;;;;;;;;;;4975759;28;20691;-67
2024/01/21 14:06:07;;;;;;;23.35;18.17;;;;;;;;;;4975387;28;20395;-65
2024/01/21 14:08:37;;;;;;;24.13;18.40;;;;;;;;;;4957898;28;20283;-66
2024/01/21 14:11:05;;;;;;;26.83;18.80;;;;;;;;;;4958996;28;20200;-65
2024/01/21 14:13:34;;;;;;;27.35;19.98;;;;;;;;;;4960553;29;20207;-65
2024/01/21 14:16:03;;;;;;;23.30;19.88;;;;;;;;;;4960255;29;20255;-66
2024/01/21 14:18:31;;;;;;;22.25;18.42;;;;;;;;;;4978071;28;20199;-65